sensor_id;sensor_type;location;lat;lon;timestamp;P1;durP1;ratioP1;P2;durP2;ratioP2
56877;SDS011;42765;44.764;19.676;2022-08-19T10:21:08;12.98;;;4.60;;
56877;SDS011;42765;44.764;19.676;2022-08-19T10:23:37;14.63;;;5.20;;
56877;SDS011;42765;44.764;19.676;2022-08-19T10:26:04;19.25;;;4.95;;
56877;SDS011;42765;44.764;19.676;2022-08-19T10:28:34;11.85;;;5.00;;
56877;SDS011;42765;44.764;19.676;2022-08-19T10:31:07;15.23;;;5.07;;
56877;SDS011;42765;44.764;19.676;2022-08-19T10:33:38;12.15;;;5.15;;
56877;SDS011;42765;44.764;19.676;2022-08-19T10:36:11;10.98;;;5.00;;
56877;SDS011;42765;44.764;19.676;2022-08-19T10:41:19;13.85;;;4.75;;
56877;SDS011;42765;44.764;19.676;2022-08-19T10:43:50;13.23;;;5.22;;
56877;SDS011;42765;44.764;19.676;2022-08-19T10:46:17;10.43;;;4.35;;
56877;SDS011;42765;44.764;19.676;2022-08-19T10:48:43;14.57;;;4.88;;
56877;SDS011;42765;44.764;19.676;2022-08-19T10:51:10;10.93;;;5.38;;
56877;SDS011;42765;44.764;19.676;2022-08-19T10:53:55;13.15;;;5.50;;
56877;SDS011;42765;44.764;19.676;2022-08-19T10:56:23;11.10;;;4.32;;
56877;SDS011;42765;44.764;19.676;2022-08-19T10:59:28;17.58;;;4.55;;
56877;SDS011;42765;44.764;19.676;2022-08-19T11:01:58;15.27;;;5.38;;
56877;SDS011;42765;44.764;19.676;2022-08-19T11:04:25;11.80;;;4.70;;
56877;SDS011;42765;44.764;19.676;2022-08-19T11:06:51;12.52;;;4.38;;
56877;SDS011;42765;44.764;19.676;2022-08-19T11:09:20;14.65;;;4.80;;
56877;SDS011;42765;44.764;19.676;2022-08-19T11:11:51;14.10;;;4.10;;
56877;SDS011;42765;44.764;19.676;2022-08-19T11:14:18;12.18;;;4.85;;
56877;SDS011;42765;44.764;19.676;2022-08-19T11:16:46;15.93;;;4.38;;
56877;SDS011;42765;44.764;19.676;2022-08-19T11:19:13;21.40;;;4.75;;
56877;SDS011;42765;44.764;19.676;2022-08-19T11:21:42;10.32;;;4.35;;
56877;SDS011;42765;44.764;19.676;2022-08-19T11:24:19;10.90;;;4.20;;
56877;SDS011;42765;44.764;19.676;2022-08-19T11:26:47;9.32;;;3.85;;
56877;SDS011;42765;44.764;19.676;2022-08-19T11:29:15;14.70;;;4.40;;
56877;SDS011;42765;44.764;19.676;2022-08-19T11:31:44;13.30;;;4.90;;
56877;SDS011;42765;44.764;19.676;2022-08-19T11:34:13;14.43;;;5.55;;
56877;SDS011;42765;44.764;19.676;2022-08-19T11:36:42;15.40;;;4.55;;
56877;SDS011;42765;44.764;19.676;2022-08-19T11:39:10;13.32;;;5.13;;
56877;SDS011;42765;44.764;19.676;2022-08-19T11:41:38;17.17;;;4.50;;
56877;SDS011;42765;44.764;19.676;2022-08-19T11:44:03;12.93;;;5.07;;
56877;SDS011;42765;44.764;19.676;2022-08-19T11:46:33;15.80;;;4.72;;
56877;SDS011;42765;44.764;19.676;2022-08-19T11:49:00;19.92;;;5.40;;
56877;SDS011;42765;44.764;19.676;2022-08-19T11:51:28;19.50;;;4.63;;
56877;SDS011;42765;44.764;19.676;2022-08-19T11:53:55;16.08;;;5.25;;
56877;SDS011;42765;44.764;19.676;2022-08-19T11:56:23;12.88;;;4.47;;
56877;SDS011;42765;44.764;19.676;2022-08-19T11:58:50;22.15;;;5.35;;
56877;SDS011;42765;44.764;19.676;2022-08-19T12:01:17;15.23;;;4.80;;
56877;SDS011;42765;44.764;19.676;2022-08-19T12:03:45;20.33;;;5.97;;
56877;SDS011;42765;44.764;19.676;2022-08-19T12:06:14;17.73;;;4.95;;
56877;SDS011;42765;44.764;19.676;2022-08-19T12:08:43;16.98;;;5.43;;
56877;SDS011;42765;44.764;19.676;2022-08-19T12:11:13;17.48;;;4.95;;
56877;SDS011;42765;44.764;19.676;2022-08-19T12:13:40;16.33;;;5.17;;
56877;SDS011;42765;44.764;19.676;2022-08-19T12:16:09;14.93;;;4.37;;
56877;SDS011;42765;44.764;19.676;2022-08-19T12:18:37;11.63;;;4.80;;
56877;SDS011;42765;44.764;19.676;2022-08-19T12:21:04;16.55;;;4.55;;
56877;SDS011;42765;44.764;19.676;2022-08-19T12:23:30;11.05;;;5.10;;
56877;SDS011;42765;44.764;19.676;2022-08-19T12:25:56;23.08;;;5.60;;
56877;SDS011;42765;44.764;19.676;2022-08-19T12:28:23;20.65;;;5.53;;
56877;SDS011;42765;44.764;19.676;2022-08-19T12:30:50;15.27;;;5.45;;
56877;SDS011;42765;44.764;19.676;2022-08-19T12:33:17;18.95;;;5.40;;
56877;SDS011;42765;44.764;19.676;2022-08-19T12:35:45;21.42;;;6.20;;
56877;SDS011;42765;44.764;19.676;2022-08-19T12:38:14;14.25;;;5.43;;
56877;SDS011;42765;44.764;19.676;2022-08-19T12:40:40;10.15;;;4.85;;
56877;SDS011;42765;44.764;19.676;2022-08-19T12:43:07;22.13;;;5.65;;
56877;SDS011;42765;44.764;19.676;2022-08-19T12:45:33;17.60;;;5.65;;
56877;SDS011;42765;44.764;19.676;2022-08-19T12:47:59;18.77;;;5.32;;
56877;SDS011;42765;44.764;19.676;2022-08-19T12:50:25;13.05;;;5.60;;
56877;SDS011;42765;44.764;19.676;2022-08-19T12:52:51;17.17;;;5.55;;
56877;SDS011;42765;44.764;19.676;2022-08-19T12:55:17;13.52;;;5.68;;
56877;SDS011;42765;44.764;19.676;2022-08-19T12:57:44;9.52;;;4.70;;
56877;SDS011;42765;44.764;19.676;2022-08-19T13:00:15;10.60;;;5.68;;
56877;SDS011;42765;44.764;19.676;2022-08-19T13:02:43;15.25;;;4.95;;
56877;SDS011;42765;44.764;19.676;2022-08-19T13:05:11;16.15;;;4.85;;
56877;SDS011;42765;44.764;19.676;2022-08-19T13:07:39;28.88;;;6.57;;
56877;SDS011;42765;44.764;19.676;2022-08-19T13:10:06;10.85;;;5.18;;
56877;SDS011;42765;44.764;19.676;2022-08-19T13:12:34;11.55;;;5.53;;
56877;SDS011;42765;44.764;19.676;2022-08-19T13:15:00;13.73;;;5.00;;
56877;SDS011;42765;44.764;19.676;2022-08-19T13:17:26;16.67;;;5.50;;
56877;SDS011;42765;44.764;19.676;2022-08-19T13:19:53;15.35;;;5.00;;
56877;SDS011;42765;44.764;19.676;2022-08-19T13:22:18;14.73;;;4.80;;
56877;SDS011;42765;44.764;19.676;2022-08-19T13:24:45;12.77;;;5.00;;
56877;SDS011;42765;44.764;19.676;2022-08-19T13:27:11;9.85;;;4.25;;
56877;SDS011;42765;44.764;19.676;2022-08-19T13:29:39;12.38;;;4.57;;
56877;SDS011;42765;44.764;19.676;2022-08-19T13:32:23;17.77;;;4.85;;
56877;SDS011;42765;44.764;19.676;2022-08-19T13:35:07;11.32;;;4.68;;
56877;SDS011;42765;44.764;19.676;2022-08-19T13:37:33;16.77;;;4.78;;
56877;SDS011;42765;44.764;19.676;2022-08-19T13:40:13;31.85;;;6.28;;
56877;SDS011;42765;44.764;19.676;2022-08-19T13:42:46;23.02;;;5.50;;
56877;SDS011;42765;44.764;19.676;2022-08-19T13:45:14;26.08;;;4.82;;
56877;SDS011;42765;44.764;19.676;2022-08-19T13:47:44;20.33;;;4.30;;
56877;SDS011;42765;44.764;19.676;2022-08-19T13:50:12;68.47;;;9.27;;
56877;SDS011;42765;44.764;19.676;2022-08-19T13:52:41;18.90;;;4.55;;
56877;SDS011;42765;44.764;19.676;2022-08-19T13:55:08;14.77;;;4.00;;
56877;SDS011;42765;44.764;19.676;2022-08-19T13:57:36;22.38;;;4.97;;
56877;SDS011;42765;44.764;19.676;2022-08-19T14:00:05;25.73;;;5.75;;
56877;SDS011;42765;44.764;19.676;2022-08-19T14:02:36;26.02;;;4.82;;
56877;SDS011;42765;44.764;19.676;2022-08-19T14:05:03;13.70;;;3.80;;
56877;SDS011;42765;44.764;19.676;2022-08-19T14:07:33;32.85;;;4.95;;
56877;SDS011;42765;44.764;19.676;2022-08-19T14:09:59;26.48;;;4.70;;
56877;SDS011;42765;44.764;19.676;2022-08-19T14:12:25;26.35;;;4.25;;
56877;SDS011;42765;44.764;19.676;2022-08-19T14:14:51;20.50;;;4.13;;
56877;SDS011;42765;44.764;19.676;2022-08-19T14:17:17;32.65;;;5.75;;
56877;SDS011;42765;44.764;19.676;2022-08-19T16:33:56;24.10;;;7.60;;
56877;SDS011;42765;44.764;19.676;2022-08-19T16:36:22;25.20;;;6.97;;
56877;SDS011;42765;44.764;19.676;2022-08-19T16:38:49;22.58;;;6.80;;
56877;SDS011;42765;44.764;19.676;2022-08-19T16:41:15;34.80;;;6.65;;
56877;SDS011;42765;44.764;19.676;2022-08-19T16:43:42;25.15;;;6.68;;
56877;SDS011;42765;44.764;19.676;2022-08-19T16:46:08;25.80;;;6.40;;
56877;SDS011;42765;44.764;19.676;2022-08-19T16:48:35;23.17;;;7.25;;
56877;SDS011;42765;44.764;19.676;2022-08-19T16:51:07;25.05;;;6.47;;
56877;SDS011;42765;44.764;19.676;2022-08-19T16:53:33;20.75;;;6.65;;
56877;SDS011;42765;44.764;19.676;2022-08-19T16:56:00;28.67;;;6.60;;
56877;SDS011;42765;44.764;19.676;2022-08-19T17:52:05;25.00;;;8.90;;
56877;SDS011;42765;44.764;19.676;2022-08-19T17:54:31;19.33;;;7.60;;
56877;SDS011;42765;44.764;19.676;2022-08-19T17:56:57;24.40;;;8.80;;
56877;SDS011;42765;44.764;19.676;2022-08-19T17:59:23;19.80;;;8.68;;
56877;SDS011;42765;44.764;19.676;2022-08-19T18:01:49;20.73;;;8.10;;
56877;SDS011;42765;44.764;19.676;2022-08-19T18:04:16;17.38;;;7.93;;
56877;SDS011;42765;44.764;19.676;2022-08-19T18:06:42;20.63;;;7.93;;
56877;SDS011;42765;44.764;19.676;2022-08-19T18:09:08;24.42;;;9.32;;
56877;SDS011;42765;44.764;19.676;2022-08-19T18:11:35;15.40;;;9.18;;
56877;SDS011;42765;44.764;19.676;2022-08-19T18:14:01;20.67;;;8.70;;
56877;SDS011;42765;44.764;19.676;2022-08-19T18:16:29;25.98;;;9.35;;
56877;SDS011;42765;44.764;19.676;2022-08-19T18:18:56;29.38;;;8.27;;
56877;SDS011;42765;44.764;19.676;2022-08-19T18:21:23;21.77;;;7.75;;
56877;SDS011;42765;44.764;19.676;2022-08-19T18:23:55;23.92;;;9.57;;
56877;SDS011;42765;44.764;19.676;2022-08-19T18:26:23;23.70;;;9.00;;
56877;SDS011;42765;44.764;19.676;2022-08-19T18:28:49;19.38;;;9.18;;
56877;SDS011;42765;44.764;19.676;2022-08-19T18:31:16;21.95;;;9.23;;
56877;SDS011;42765;44.764;19.676;2022-08-19T18:33:42;22.33;;;8.90;;
56877;SDS011;42765;44.764;19.676;2022-08-19T18:36:09;21.38;;;9.48;;
56877;SDS011;42765;44.764;19.676;2022-08-19T18:38:35;22.00;;;8.73;;
56877;SDS011;42765;44.764;19.676;2022-08-19T18:41:19;18.85;;;9.43;;
56877;SDS011;42765;44.764;19.676;2022-08-19T18:44:04;24.63;;;9.02;;
56877;SDS011;42765;44.764;19.676;2022-08-19T18:46:48;17.77;;;8.70;;
56877;SDS011;42765;44.764;19.676;2022-08-19T18:49:33;19.92;;;8.80;;
56877;SDS011;42765;44.764;19.676;2022-08-19T18:51:59;22.33;;;9.77;;
56877;SDS011;42765;44.764;19.676;2022-08-19T18:54:27;27.23;;;9.35;;
56877;SDS011;42765;44.764;19.676;2022-08-19T18:56:54;20.58;;;9.70;;
56877;SDS011;42765;44.764;19.676;2022-08-19T18:59:23;26.48;;;9.70;;
56877;SDS011;42765;44.764;19.676;2022-08-19T22:54:25;19.85;;;9.70;;
56877;SDS011;42765;44.764;19.676;2022-08-19T22:56:51;22.05;;;9.68;;
56877;SDS011;42765;44.764;19.676;2022-08-19T22:59:18;19.20;;;8.95;;
56877;SDS011;42765;44.764;19.676;2022-08-19T23:01:44;22.58;;;8.32;;
56877;SDS011;42765;44.764;19.676;2022-08-19T23:04:10;19.73;;;8.88;;
56877;SDS011;42765;44.764;19.676;2022-08-19T23:06:37;28.90;;;10.95;;
56877;SDS011;42765;44.764;19.676;2022-08-19T23:09:04;26.65;;;8.73;;
56877;SDS011;42765;44.764;19.676;2022-08-19T23:11:34;20.20;;;9.95;;
56877;SDS011;42765;44.764;19.676;2022-08-19T23:14:01;17.52;;;7.97;;
56877;SDS011;42765;44.764;19.676;2022-08-19T23:16:29;23.15;;;10.13;;
56877;SDS011;42765;44.764;19.676;2022-08-19T23:18:55;22.70;;;11.27;;
56877;SDS011;42765;44.764;19.676;2022-08-19T23:21:21;23.58;;;12.00;;
56877;SDS011;42765;44.764;19.676;2022-08-19T23:23:50;29.95;;;12.88;;
56877;SDS011;42765;44.764;19.676;2022-08-19T23:26:17;20.05;;;9.23;;
56877;SDS011;42765;44.764;19.676;2022-08-19T23:28:44;19.13;;;10.27;;
56877;SDS011;42765;44.764;19.676;2022-08-19T23:31:28;20.13;;;10.80;;
56877;SDS011;42765;44.764;19.676;2022-08-19T23:33:54;23.02;;;9.95;;
56877;SDS011;42765;44.764;19.676;2022-08-19T23:36:21;30.75;;;11.10;;
56877;SDS011;42765;44.764;19.676;2022-08-19T23:38:49;23.90;;;10.90;;
56877;SDS011;42765;44.764;19.676;2022-08-19T23:41:19;21.65;;;10.68;;
56877;SDS011;42765;44.764;19.676;2022-08-19T23:43:46;28.93;;;11.90;;
56877;SDS011;42765;44.764;19.676;2022-08-19T23:46:13;19.13;;;8.45;;
56877;SDS011;42765;44.764;19.676;2022-08-19T23:48:43;24.05;;;9.82;;
56877;SDS011;42765;44.764;19.676;2022-08-19T23:51:10;22.10;;;10.18;;
56877;SDS011;42765;44.764;19.676;2022-08-19T23:53:39;21.58;;;11.35;;
56877;SDS011;42765;44.764;19.676;2022-08-19T23:56:06;22.90;;;9.40;;
56877;SDS011;42765;44.764;19.676;2022-08-19T23:58:33;25.52;;;9.98;;
